Archival Weather

Snohomish County (Paine Fld)

Everett, Washington (KPAE)

Report from: Wednesday, November 15, 2023 2:53 PM PST
Current time: Friday, June 21, 2024 12:26 AM PDT

Current weather – Weather history – Daily summaries
Weather forecast

Temperature6.1°C (43.0°F)
Wind chill4.1°C (39.5°F)
Dew point1.7°C (35.1°F)
Winds 5 kts (2.6 m/s, 5.8 mph) Vrb
Winds variableWinds variable
Visibility10 mi. (16.1 km)
Clouds Ceiling: Broken clouds 7,500 ft. (2,286 m)
Altimeter29.96 in.Hg (1015 mB)
Relative humidity73 %
Density altitude-1,022 ft. (-312 m)
Sea-level pressure101.5 kPa (1015 mB, 29.97 in.Hg)
Remarks Automated weather observing station with precipitation discriminator
Flight conditions Visual Meteorological Conditions
Raw dataKPAE 152253Z VRB05KT 10SM BKN075 06/02 A2996 RMK AO2 SLP148 T00610017
An error has occurred. This application may no longer respond until reloaded. Reload 🗙